Time;durP1;ratioP1;P1;durP2;ratioP2;P2;SDS_P1;SDS_P2;PMS_P1;PMS_P2;Temp;Humidity;BMP_temperature;BMP_pressure;BME280_temperature;BME280_humidity;BME280_pressure;Samples;Min_cycle;Max_cycle;Signal;HPM_P1;HPM_P2
2022/02/07 00:02:05;;;;;;;2.45;1.30;;;4.30;1.00;;;4.21;77.78;98946.00;5052119;28;20252;-73
2022/02/07 00:04:37;;;;;;;2.90;1.73;;;4.20;99.90;;;4.14;77.79;98955.06;5052546;28;20185;-70
2022/02/07 00:07:09;;;;;;;3.08;1.48;;;4.20;99.90;;;4.16;77.53;98963.72;5052051;28;20549;-70
2022/02/07 00:09:38;;;;;;;2.50;2.13;;;4.20;99.90;;;4.08;77.27;98967.44;5052093;28;20179;-70
2022/02/07 00:12:08;;;;;;;1.67;1.10;;;4.20;99.90;;;4.00;77.35;98958.78;5052202;28;20577;-70
2022/02/07 00:14:37;;;;;;;2.90;1.50;;;4.10;99.90;;;3.94;77.16;98966.63;5051952;28;20258;-71
2022/02/07 00:17:07;;;;;;;2.95;1.23;;;4.00;99.90;;;3.99;77.63;98973.19;5052017;28;20185;-70
2022/02/07 00:19:37;;;;;;;1.70;1.33;;;4.00;99.90;;;3.87;77.46;98960.44;5050556;28;20192;-71
2022/02/07 00:22:06;;;;;;;1.90;1.02;;;3.90;99.90;;;3.76;76.99;98973.63;5051679;28;20213;-69
2022/02/07 00:24:34;;;;;;;1.63;1.05;;;3.80;99.90;;;3.71;76.80;98974.22;5051692;28;20322;-70
2022/02/07 00:27:03;;;;;;;0.93;0.60;;;3.80;99.90;;;3.65;76.58;98976.88;5051743;28;20592;-71
2022/02/07 00:29:31;;;;;;;1.50;0.98;;;3.70;99.90;;;3.59;76.57;98991.88;5051606;28;20295;-71
2022/02/07 00:32:00;;;;;;;2.75;1.35;;;3.70;99.90;;;3.57;76.63;98991.28;5051839;28;20258;-71
2022/02/07 00:34:29;;;;;;;1.35;0.88;;;3.60;99.90;;;3.50;76.08;99001.97;5051145;28;20621;-70
2022/02/07 00:36:58;;;;;;;2.38;0.70;;;3.50;99.90;;;3.52;75.36;98998.28;5051692;28;20230;-70
2022/02/07 00:39:28;;;;;;;1.75;0.80;;;3.50;99.90;;;3.56;75.59;99012.88;5050294;28;20254;-70
2022/02/07 00:42:02;;;;;;;2.47;0.80;;;3.60;99.90;;;3.53;75.26;99016.78;5051653;28;20213;-70
2022/02/07 00:44:32;;;;;;;1.70;1.08;;;3.60;99.90;;;3.55;75.99;99020.06;5051530;28;20184;-72
2022/02/07 00:47:07;;;;;;;1.33;1.10;;;3.60;99.90;;;3.66;75.42;99037.38;5051688;28;20195;-71
2022/02/07 00:49:36;;;;;;;1.30;0.90;;;3.60;99.90;;;3.61;75.26;99046.03;5050753;28;20247;-71
2022/02/07 00:52:07;;;;;;;2.67;0.73;;;3.60;99.90;;;3.60;75.15;99049.72;5050771;28;20204;-70
2022/02/07 00:54:36;;;;;;;2.50;0.88;;;3.60;99.90;;;3.58;74.86;99062.47;5050536;28;20192;-70
2022/02/07 00:57:06;;;;;;;1.40;0.80;;;3.60;99.90;;;3.66;73.99;99059.59;5066840;28;20199;-69
2022/02/07 00:59:35;;;;;;;4.80;0.90;;;3.70;99.90;;;3.62;74.41;99068.25;5047418;28;20281;-70
2022/02/07 01:02:04;;;;;;;1.42;0.70;;;3.60;99.90;;;3.65;74.87;99082.03;5052102;28;20312;-71
2022/02/07 01:04:34;;;;;;;4.03;0.90;;;3.70;99.90;;;3.61;74.84;99080.78;5055340;28;20196;-70
2022/02/07 01:07:09;;;;;;;1.65;0.98;;;3.60;99.90;;;3.58;74.47;99094.56;5075487;28;20233;-71
2022/02/07 01:09:42;;;;;;;2.00;1.00;;;3.60;99.90;;;3.60;74.62;99092.50;5075603;28;20217;-69
2022/02/07 01:12:22;;;;;;;3.17;0.90;;;3.60;99.90;;;3.50;74.26;99103.59;5057858;28;20633;-71
2022/02/07 01:15:24;;;;;;;3.55;0.80;;;3.60;99.90;;;3.46;74.46;99097.00;5058188;28;20191;-71
2022/02/07 01:21:24;;;;;;;1.50;1.10;;;3.50;99.90;;;3.37;73.65;99097.34;5056976;28;20215;-71
2022/02/07 01:49:48;;;;;;;2.85;2.60;;;3.20;99.90;;;3.04;75.69;99156.81;5102050;27;1275662;-70
2022/02/07 01:52:36;;;;;;;2.85;0.93;;;3.10;99.90;;;2.96;75.82;99178.34;5091621;28;20214;-70
2022/02/07 01:55:12;;;;;;;2.70;2.35;;;3.10;99.90;;;2.86;76.85;99191.19;5093287;28;20187;-72
2022/02/07 01:57:45;;;;;;;2.25;1.40;;;2.90;1.00;;;2.74;76.73;99186.59;5092567;28;20186;-70
2022/02/07 02:00:18;;;;;;;1.55;1.00;;;2.90;1.00;;;2.71;77.11;99203.81;5092378;28;20607;-70
2022/02/07 02:02:47;;;;;;;2.53;1.30;;;2.80;1.00;;;2.71;77.52;99201.13;5125344;22;20224;-72
2022/02/07 02:05:36;;;;;;;3.95;1.17;;;2.80;99.90;;;2.76;77.92;99201.38;5051698;28;20200;-72
2022/02/07 02:08:11;;;;;;;4.15;1.20;;;2.80;99.90;;;2.65;77.90;99209.94;5070851;28;20500;-71
2022/02/07 02:10:43;;;;;;;3.92;1.15;;;2.80;99.90;;;2.69;78.92;99210.38;5069923;28;20599;-72
2022/02/07 02:13:22;;;;;;;3.92;1.10;;;2.70;99.90;;;2.67;78.34;99226.59;5070645;28;20199;-72
2022/02/07 02:15:56;;;;;;;2.85;1.02;;;2.70;99.90;;;2.63;77.71;99228.00;5069814;28;20199;-72
2022/02/07 02:32:56;;;;;;;8.40;1.33;;;2.80;99.90;;;2.81;77.28;99267.63;5071783;28;20198;-74
2022/02/07 02:35:41;;;;;;;1.65;1.15;;;2.80;99.90;;;2.81;76.65;99272.97;5088042;28;20561;-73
2022/02/07 02:38:20;;;;;;;3.03;1.30;;;2.90;99.90;;;2.77;76.19;99293.88;5071022;28;20225;-73
2022/02/07 02:46:26;;;;;;;3.15;1.33;;;2.90;99.90;;;2.91;75.83;99306.31;5074009;28;20207;-71
2022/02/07 02:49:01;;;;;;;2.88;1.17;;;2.90;99.90;;;2.86;75.56;99338.13;5074309;28;20458;-72
2022/02/07 02:51:33;;;;;;;5.03;1.73;;;2.90;99.90;;;2.85;75.50;99333.84;5092162;28;20179;-73
2022/02/07 02:54:01;;;;;;;4.03;1.20;;;2.90;99.90;;;2.83;75.15;99346.53;5092831;28;20192;-72
2022/02/07 02:56:31;;;;;;;3.40;1.08;;;2.90;99.90;;;2.88;75.39;99341.44;5092812;28;20638;-71
2022/02/07 02:58:59;;;;;;;5.82;1.25;;;2.90;99.90;;;2.90;75.05;99357.31;5090713;28;20196;-72
2022/02/07 03:01:33;;;;;;;4.97;1.58;;;2.90;99.90;;;2.93;75.05;99362.25;5062132;28;20192;-73
2022/02/07 03:04:08;;;;;;;10.50;1.73;;;3.00;99.90;;;2.90;74.83;99371.50;5073175;28;20207;-73
2022/02/07 03:06:38;;;;;;;2.10;1.20;;;3.00;99.90;;;2.93;75.08;99375.63;5056679;28;20666;-74
2022/02/07 03:09:13;;;;;;;5.78;1.75;;;3.00;99.90;;;2.97;75.17;99383.06;5074181;28;20219;-73
2022/02/07 03:11:44;;;;;;;8.07;1.77;;;3.00;99.90;;;2.95;75.24;99387.75;5058006;28;20196;-72
2022/02/07 03:14:22;;;;;;;1.95;1.25;;;3.00;99.90;;;2.91;75.79;99401.69;5057021;28;20256;-73
2022/02/07 03:16:52;;;;;;;4.80;1.15;;;3.00;99.90;;;2.89;75.93;99412.59;5072448;28;20180;-74
2022/02/07 03:19:21;;;;;;;3.40;1.38;;;3.00;99.90;;;2.95;76.26;99432.38;5055662;28;20274;-75
2022/02/07 03:21:54;;;;;;;2.45;1.30;;;3.00;99.90;;;2.91;76.43;99431.91;5055844;28;20184;-74
2022/02/07 03:24:23;;;;;;;5.78;1.70;;;3.00;99.90;;;2.88;75.84;99429.63;5073783;28;20176;-73
2022/02/07 03:27:11;;;;;;;3.45;1.45;;;2.90;99.90;;;2.92;75.99;99452.25;5073824;28;20265;-72
2022/02/07 03:29:46;;;;;;;3.88;1.50;;;2.90;99.90;;;2.91;75.81;99450.59;5072680;28;20223;-73
2022/02/07 03:32:19;;;;;;;2.30;1.20;;;2.90;99.90;;;2.95;75.49;99457.22;5072284;28;20216;-72
2022/02/07 03:35:18;;;;;;;4.97;1.30;;;3.00;99.90;;;2.91;75.22;99466.63;5064002;28;20620;-73
2022/02/07 03:37:48;;;;;;;6.20;1.77;;;3.00;99.90;;;2.97;75.29;99471.25;5055095;28;20214;-72
2022/02/07 03:40:18;;;;;;;5.75;1.73;;;3.00;99.90;;;2.98;75.49;99469.41;5055616;28;20172;-73
2022/02/07 03:42:49;;;;;;;9.43;1.48;;;3.00;99.90;;;2.94;75.43;99479.63;5055845;28;20204;-73
2022/02/07 03:45:19;;;;;;;6.80;2.00;;;3.00;99.90;;;2.96;75.55;99485.59;5071505;28;20709;-75
2022/02/07 03:47:54;;;;;;;4.10;1.90;;;3.00;99.90;;;2.92;75.99;99488.84;5070798;28;20273;-72
2022/02/07 03:50:29;;;;;;;8.32;1.52;;;3.00;99.90;;;2.90;76.25;99509.59;5055043;28;20187;-74
2022/02/07 03:52:58;;;;;;;9.90;2.60;;;3.00;99.90;;;2.93;76.92;99507.38;5071010;28;20192;-71
2022/02/07 03:55:30;;;;;;;4.32;1.77;;;3.00;99.90;;;2.92;76.51;99516.41;5054692;28;20192;-72
2022/02/07 03:58:04;;;;;;;5.53;1.83;;;3.00;99.90;;;2.77;77.28;99520.91;5055317;28;20246;-71
2022/02/07 04:00:34;;;;;;;6.90;2.08;;;2.90;99.90;;;2.85;77.01;99526.19;5071591;28;20651;-72
2022/02/07 04:03:29;;;;;;;8.32;1.88;;;2.90;99.90;;;2.81;76.82;99537.44;5054502;28;20253;-72
2022/02/07 04:06:01;;;;;;;4.07;1.70;;;2.80;99.90;;;2.81;77.24;99556.94;5054373;28;20184;-72
2022/02/07 04:08:33;;;;;;;3.17;2.08;;;2.90;99.90;;;2.89;78.11;99570.22;5054423;28;20216;-73
2022/02/07 04:11:13;;;;;;;4.60;1.55;;;2.90;99.90;;;2.77;77.52;99577.00;5053594;28;20192;-72
2022/02/07 04:13:51;;;;;;;3.03;1.27;;;2.80;99.90;;;2.80;77.43;99584.69;5054313;28;20207;-73
2022/02/07 04:16:20;;;;;;;8.57;2.55;;;2.90;99.90;;;2.76;77.63;99580.69;5072816;28;20175;-73
2022/02/07 04:19:04;;;;;;;9.13;1.88;;;2.90;99.90;;;2.79;78.17;99584.84;5071213;28;20200;-72
2022/02/07 04:21:38;;;;;;;2.03;1.83;;;2.80;99.90;;;2.77;78.45;99584.19;5054576;28;20557;-73
2022/02/07 04:24:08;;;;;;;14.23;1.90;;;2.80;99.90;;;2.77;78.13;99601.06;5054120;28;20194;-72
2022/02/07 04:26:41;;;;;;;5.50;1.60;;;2.80;99.90;;;2.74;78.73;99616.63;5054674;28;20199;-73
2022/02/07 04:29:11;;;;;;;5.80;1.73;;;2.80;99.90;;;2.75;78.87;99627.16;5054549;28;20564;-73
2022/02/07 04:31:40;;;;;;;6.28;1.85;;;2.80;99.90;;;2.70;79.12;99629.53;5054711;28;20248;-73
2022/02/07 04:34:12;;;;;;;5.00;1.77;;;2.80;99.90;;;2.64;79.68;99630.25;5054446;28;20192;-72
2022/02/07 04:36:41;;;;;;;3.08;1.50;;;2.70;99.90;;;2.63;79.63;99631.25;5072098;28;20188;-71
2022/02/07 04:39:10;;;;;;;6.28;2.33;;;2.70;99.90;;;2.72;79.27;99642.69;5053326;28;20222;-73
2022/02/07 04:41:40;;;;;;;4.60;1.73;;;2.80;99.90;;;2.69;79.38;99638.56;5053903;28;20194;-75
2022/02/07 04:44:15;;;;;;;9.73;2.05;;;2.70;99.90;;;2.65;79.50;99658.63;5072579;28;20245;-71
2022/02/07 04:46:59;;;;;;;11.88;2.55;;;2.70;99.90;;;2.55;79.87;99664.22;5055145;28;20192;-73
2022/02/07 04:50:05;;;;;;;4.45;1.70;;;2.60;99.90;;;2.58;79.34;99676.38;5055395;28;20239;-71
2022/02/07 04:55:32;;;;;;;2.90;1.40;;;2.70;99.90;;;2.71;78.59;99699.81;5062384;28;20214;-74
2022/02/07 04:58:07;;;;;;;13.07;2.17;;;2.70;99.90;;;2.76;78.21;99714.25;5057227;28;20545;-74
2022/02/07 05:00:49;;;;;;;8.98;2.60;;;2.80;99.90;;;2.77;78.20;99715.94;5071333;28;20184;-74
2022/02/07 05:03:23;;;;;;;4.10;1.88;;;2.80;99.90;;;2.84;77.57;99729.41;5054423;28;20222;-75
2022/02/07 05:14:10;;;;;;;8.02;1.88;;;3.00;99.90;;;2.91;77.06;99755.22;5057328;28;20196;-74
2022/02/07 05:16:41;;;;;;;6.70;1.65;;;2.90;99.90;;;2.92;76.91;99761.38;5057245;28;20195;-74
2022/02/07 05:19:28;;;;;;;5.70;1.48;;;2.90;99.90;;;2.87;76.78;99764.59;5074256;28;20228;-74
2022/02/07 05:22:16;;;;;;;3.67;1.65;;;3.00;99.90;;;2.86;76.73;99780.81;5075560;28;20238;-73
2022/02/07 05:24:58;;;;;;;7.32;2.20;;;2.90;99.90;;;2.88;77.07;99789.47;5074580;28;20489;-71
2022/02/07 05:27:55;;;;;;;2.22;1.40;;;2.90;99.90;;;2.94;77.13;99800.28;5041143;28;20207;-74
2022/02/07 05:30:52;;;;;;;2.58;1.20;;;3.00;99.90;;;3.00;77.32;99796.88;5054886;28;20216;-72
2022/02/07 05:33:44;;;;;;;6.28;2.38;;;3.00;99.90;;;3.02;77.32;99805.56;5072477;28;20192;-74
2022/02/07 05:36:37;;;;;;;4.22;1.63;;;3.00;99.90;;;2.95;76.85;99809.94;5055333;28;20199;-73
2022/02/07 05:39:34;;;;;;;7.30;1.60;;;3.00;99.90;;;2.89;76.49;99794.66;5072996;28;20200;-73
2022/02/07 05:42:20;;;;;;;9.82;2.45;;;3.00;99.90;;;2.88;76.80;99829.56;5072529;28;20743;-73
2022/02/07 05:45:07;;;;;;;9.50;1.88;;;2.90;99.90;;;2.97;77.04;99842.69;5054660;28;20207;-73
2022/02/07 05:47:55;;;;;;;6.07;1.80;;;3.00;99.90;;;2.92;76.69;99850.41;5071586;28;20184;-73
2022/02/07 05:50:40;;;;;;;5.60;1.70;;;3.00;99.90;;;2.90;76.83;99857.78;5071082;28;20456;-72
2022/02/07 05:53:19;;;;;;;5.45;1.80;;;3.00;99.90;;;2.85;76.78;99868.16;5052533;28;20184;-72
2022/02/07 05:56:06;;;;;;;7.63;1.40;;;2.90;99.90;;;2.90;76.62;99871.16;5071094;28;20192;-73
2022/02/07 05:58:53;;;;;;;6.53;2.10;;;2.90;99.90;;;2.91;76.09;99870.09;5076084;28;20222;-75
2022/02/07 06:01:35;;;;;;;8.82;1.90;;;3.00;99.90;;;2.97;75.93;99882.78;5060052;28;20188;-74
2022/02/07 06:04:05;;;;;;;3.40;1.75;;;3.00;99.90;;;3.02;75.78;99893.75;5071006;28;20354;-74
2022/02/07 06:06:36;;;;;;;12.13;2.50;;;3.10;99.90;;;3.08;75.50;99883.38;5054284;28;20211;-72
2022/02/07 06:09:07;;;;;;;5.97;1.73;;;3.10;99.90;;;3.08;75.27;99910.09;5053967;28;20234;-72
2022/02/07 06:11:40;;;;;;;3.65;2.13;;;3.10;99.90;;;3.07;75.58;99909.25;5054129;28;20184;-73
2022/02/07 06:14:09;;;;;;;6.80;1.90;;;3.10;99.90;;;3.11;75.66;99918.59;5057312;28;20195;-73
2022/02/07 06:16:37;;;;;;;5.53;2.15;;;3.10;99.90;;;3.13;75.44;99929.09;5057548;28;20195;-73
2022/02/07 06:19:06;;;;;;;4.00;1.52;;;3.10;99.90;;;3.01;75.39;99937.53;5056426;28;20593;-74
2022/02/07 06:21:42;;;;;;;6.22;1.85;;;3.00;99.90;;;3.09;75.08;99967.91;5053842;28;20674;-73
2022/02/07 06:24:11;;;;;;;10.75;2.10;;;3.10;99.90;;;3.09;75.50;99962.56;5051979;28;20243;-72
2022/02/07 06:26:39;;;;;;;3.88;1.90;;;3.10;99.90;;;3.10;75.29;99966.91;5069000;28;20207;-72
2022/02/07 06:29:13;;;;;;;7.88;1.92;;;3.10;99.90;;;3.12;75.37;99972.88;5052473;28;20229;-72
2022/02/07 06:31:48;;;;;;;6.22;2.35;;;3.10;99.90;;;3.19;74.68;99971.19;5068851;28;20188;-71
2022/02/07 06:34:16;;;;;;;4.53;2.13;;;3.20;99.90;;;3.15;75.10;99969.88;5052713;28;20211;-71
2022/02/07 06:36:46;;;;;;;8.43;2.95;;;3.20;99.90;;;3.08;74.69;99979.59;5056665;28;20200;-73
2022/02/07 06:39:17;;;;;;;4.30;2.05;;;3.20;99.90;;;3.15;75.29;99985.91;5056531;28;20216;-74
2022/02/07 06:41:47;;;;;;;9.60;3.08;;;3.20;99.90;;;3.12;75.11;99995.09;5056250;28;20187;-73
2022/02/07 06:44:18;;;;;;;3.88;2.58;;;3.20;99.90;;;3.19;74.62;100008.59;5074899;28;20172;-72
2022/02/07 06:46:47;;;;;;;4.68;2.30;;;3.20;99.90;;;3.25;74.72;100002.53;5055439;28;20177;-74
2022/02/07 06:49:17;;;;;;;5.22;1.85;;;3.20;99.90;;;3.27;74.15;100019.25;5055878;28;20712;-73
2022/02/07 06:51:48;;;;;;;6.65;2.50;;;3.30;99.90;;;3.25;74.92;100026.59;5056507;28;20208;-74
2022/02/07 06:54:17;;;;;;;8.20;2.40;;;3.30;99.90;;;3.29;74.31;100027.94;5055905;28;20200;-72
2022/02/07 06:56:48;;;;;;;4.07;2.40;;;3.30;99.90;;;3.31;74.47;100034.75;5055967;28;20364;-73
2022/02/07 06:59:19;;;;;;;5.55;1.50;;;3.30;99.90;;;3.39;74.56;100045.38;5055277;28;20230;-73
2022/02/07 07:01:53;;;;;;;4.93;2.35;;;3.40;99.90;;;3.34;73.96;100055.78;5055241;28;20188;-73
2022/02/07 07:04:22;;;;;;;4.15;1.90;;;3.40;99.90;;;3.35;74.19;100057.44;5055254;28;20200;-72
2022/02/07 07:06:52;;;;;;;10.50;2.55;;;3.40;99.90;;;3.38;74.40;100057.13;5055433;28;20269;-72
2022/02/07 07:09:21;;;;;;;10.25;2.83;;;3.40;99.90;;;3.45;73.95;100057.22;5055359;28;20208;-73
2022/02/07 07:11:49;;;;;;;6.75;1.60;;;3.40;99.90;;;3.36;74.07;100063.63;5072693;28;20241;-73
2022/02/07 07:14:30;;;;;;;4.70;2.28;;;3.40;99.90;;;3.46;73.93;100066.94;5055692;28;20195;-74
2022/02/07 07:17:03;;;;;;;6.47;1.98;;;3.40;99.90;;;3.52;74.31;100079.59;5055553;28;20206;-74
2022/02/07 07:19:53;;;;;;;9.57;2.42;;;3.50;99.90;;;3.48;73.84;100086.31;5081024;22;20663;-69
2022/02/07 07:22:24;;;;;;;8.68;2.10;;;3.50;99.90;;;3.60;74.15;100084.06;5034038;28;20223;-68
2022/02/07 07:24:53;;;;;;;3.83;3.03;;;3.60;99.90;;;3.59;73.75;100111.81;5033913;28;20193;-68
2022/02/07 07:27:29;;;;;;;5.03;2.88;;;3.60;99.90;;;3.58;73.94;100116.34;5034072;28;20239;-68
2022/02/07 07:29:58;;;;;;;9.27;2.15;;;3.60;99.90;;;3.59;73.58;100127.88;5033817;28;20240;-68
2022/02/07 07:32:29;;;;;;;9.68;2.30;;;3.60;99.90;;;3.59;73.61;100128.69;5035066;28;20209;-67
2022/02/07 07:35:01;;;;;;;8.23;3.90;;;3.60;99.90;;;3.60;73.87;100146.44;5090585;23;20232;-70
2022/02/07 07:37:31;;;;;;;14.05;2.60;;;3.60;99.90;;;3.66;74.01;100145.72;5105569;28;20199;-70
2022/02/07 07:40:01;;;;;;;8.38;1.90;;;3.60;99.90;;;3.66;73.16;100132.34;5093045;28;20199;-70
2022/02/07 07:42:31;;;;;;;7.13;1.73;;;3.60;99.90;;;3.72;73.43;100149.56;5092872;28;20180;-71
2022/02/07 07:45:42;;;;;;;7.38;2.00;;;3.70;99.90;;;3.82;72.93;100145.66;5056024;28;20700;-69
2022/02/07 07:48:24;;;;;;;7.97;3.28;;;3.70;99.90;;;3.87;73.14;100164.66;5073951;28;20224;-69
2022/02/07 07:51:05;;;;;;;9.18;2.85;;;3.80;99.90;;;3.79;72.95;100162.03;5068798;28;20224;-69
2022/02/07 07:54:12;;;;;;;6.35;3.33;;;3.80;99.90;;;3.92;72.94;100170.31;5069160;28;20728;-69
2022/02/07 08:02:26;;;;;;;11.52;2.83;;;3.90;99.90;;;3.79;73.11;100186.13;5053788;28;20655;-70
2022/02/07 08:04:57;;;;;;;4.93;2.25;;;3.80;99.90;;;3.88;73.06;100200.28;5052369;28;20213;-69
2022/02/07 08:07:29;;;;;;;9.82;2.40;;;3.90;99.90;;;4.00;72.63;100204.25;5052103;28;20200;-69
2022/02/07 08:10:27;;;;;;;12.55;2.70;;;3.90;99.90;;;4.11;72.69;100211.88;5053381;28;20356;-70
2022/02/07 08:13:01;;;;;;;7.97;2.30;;;4.00;99.90;;;4.00;72.63;100214.13;5052028;28;20200;-70
2022/02/07 08:15:30;;;;;;;5.63;2.15;;;4.00;99.90;;;4.03;72.91;100219.09;5051370;28;20223;-69
2022/02/07 08:17:58;;;;;;;7.68;1.95;;;4.00;99.90;;;3.94;72.99;100219.16;5053262;28;20185;-70
2022/02/07 08:20:27;;;;;;;10.50;4.68;;;4.00;99.90;;;4.09;72.28;100218.41;5057901;28;20292;-70
2022/02/07 08:23:00;;;;;;;9.35;4.85;;;4.00;99.90;;;4.10;72.73;100238.81;5055557;28;20677;-69
2022/02/07 08:25:30;;;;;;;5.88;3.05;;;4.10;99.90;;;4.13;72.45;100233.09;5053046;28;20185;-69
2022/02/07 08:27:58;;;;;;;30.33;15.80;;;4.10;99.90;;;4.02;73.06;100250.41;5052870;28;20680;-69
2022/02/07 08:30:27;;;;;;;8.98;2.97;;;4.00;99.90;;;4.01;72.75;100250.59;5052602;28;20264;-70
2022/02/07 08:33:03;;;;;;;6.10;2.85;;;4.00;99.90;;;4.01;72.88;100262.13;5052726;28;20177;-69
2022/02/07 08:35:32;;;;;;;3.78;1.85;;;4.00;99.90;;;3.94;72.67;100269.19;5053260;28;20196;-70
2022/02/07 08:38:01;;;;;;;9.23;3.55;;;4.00;99.90;;;4.09;73.22;100264.75;5052959;28;20532;-70
2022/02/07 08:40:33;;;;;;;3.72;2.25;;;4.00;99.90;;;4.15;72.02;100273.94;5054483;28;20227;-70
2022/02/07 08:43:01;;;;;;;10.50;3.45;;;4.10;99.90;;;4.29;72.13;100274.03;5055237;28;20177;-70
2022/02/07 08:45:30;;;;;;;12.07;4.22;;;4.20;99.90;;;4.36;71.90;100276.81;5055398;28;20192;-69
2022/02/07 08:47:59;;;;;;;7.97;2.33;;;4.30;99.90;;;4.25;71.80;100290.63;5057290;28;20180;-69
2022/02/07 08:50:29;;;;;;;12.23;2.88;;;4.30;99.90;;;4.32;72.07;100291.56;5057970;28;20189;-69
2022/02/07 08:52:59;;;;;;;4.53;1.50;;;4.30;99.90;;;4.33;71.99;100304.81;5056747;28;20184;-69
2022/02/07 08:55:34;;;;;;;6.65;2.50;;;4.30;99.90;;;4.37;71.68;100299.91;5054547;28;20185;-69
2022/02/07 08:58:08;;;;;;;5.18;3.10;;;4.30;99.90;;;4.27;72.27;100315.38;5053311;28;20543;-69
2022/02/07 09:00:45;;;;;;;9.20;2.65;;;4.30;99.90;;;4.44;71.60;100313.44;5067257;28;20194;-69
2022/02/07 09:03:41;;;;;;;7.95;2.42;;;4.40;99.90;;;4.59;71.45;100319.72;5089299;28;20204;-69
2022/02/07 09:06:27;;;;;;;9.27;2.20;;;4.50;99.90;;;4.61;71.49;100310.47;5076349;28;20234;-68
2022/02/07 09:09:08;;;;;;;7.05;2.40;;;4.50;99.90;;;4.51;71.36;100327.78;5074815;28;20696;-69
2022/02/07 09:11:38;;;;;;;5.50;1.83;;;4.50;99.90;;;4.61;71.32;100326.56;5073440;28;20607;-69
2022/02/07 09:14:11;;;;;;;14.45;2.42;;;4.50;99.90;;;4.52;71.36;100324.94;5074045;28;20204;-70
2022/02/07 09:16:41;;;;;;;5.25;2.47;;;4.50;99.90;;;4.72;70.89;100342.25;5071677;28;20559;-69
2022/02/07 09:19:11;;;;;;;5.18;1.70;;;4.70;99.90;;;4.55;70.91;100346.00;5072440;28;20184;-67
2022/02/07 09:21:39;;;;;;;13.60;2.95;;;4.60;99.90;;;4.59;70.82;100350.03;5071729;28;20180;-68
2022/02/07 09:24:13;;;;;;;5.25;2.00;;;4.60;99.90;;;4.63;71.00;100348.66;5071729;28;20265;-70
2022/02/07 09:26:43;;;;;;;12.25;2.55;;;4.60;99.90;;;4.67;70.61;100352.66;5072040;28;20176;-69
2022/02/07 09:29:12;;;;;;;6.07;2.08;;;4.70;99.90;;;5.03;69.74;100370.84;5071578;28;20265;-70
2022/02/07 09:31:40;;;;;;;10.13;3.08;;;4.90;99.90;;;4.66;69.97;100367.06;5071747;28;20204;-70
2022/02/07 09:34:09;;;;;;;7.72;2.63;;;4.70;99.90;;;4.87;69.99;100381.69;5071634;28;20269;-69
2022/02/07 09:36:37;;;;;;;4.95;2.30;;;4.80;99.90;;;4.78;70.10;100381.75;5071769;28;20196;-68
2022/02/07 09:39:06;;;;;;;11.23;2.15;;;4.80;99.90;;;4.81;70.02;100394.78;5071858;28;20266;-68
2022/02/07 09:41:35;;;;;;;7.00;2.50;;;4.80;99.90;;;4.89;69.69;100385.03;5071562;28;20258;-69
2022/02/07 09:44:08;;;;;;;18.55;5.30;;;4.80;99.90;;;4.98;69.46;100392.00;5071405;28;20211;-69
2022/02/07 09:46:44;;;;;;;6.47;2.55;;;5.00;99.90;;;5.15;69.41;100388.19;5086935;28;20595;-69
2022/02/07 09:49:17;;;;;;;11.05;3.20;;;5.00;99.90;;;5.17;69.27;100410.31;5071434;28;20172;-69
2022/02/07 09:51:48;;;;;;;10.32;3.45;;;5.10;99.90;;;5.21;68.72;100403.56;5071092;28;20259;-69
2022/02/07 09:54:19;;;;;;;3.95;1.85;;;5.20;99.90;;;5.31;69.17;100409.53;5070086;28;20265;-69
2022/02/07 09:56:49;;;;;;;9.27;3.65;;;5.20;99.90;;;5.30;68.41;100421.25;5070878;28;20184;-68
2022/02/07 09:59:22;;;;;;;7.88;2.55;;;5.20;99.90;;;5.35;68.59;100424.25;5071269;28;20181;-68
2022/02/07 10:01:54;;;;;;;9.13;3.30;;;5.30;99.90;;;5.42;68.18;100437.78;5071862;28;20520;-66
2022/02/07 10:04:28;;;;;;;11.13;3.83;;;5.40;99.90;;;5.67;67.85;100445.44;5071926;28;20262;-68
2022/02/07 10:07:09;;;;;;;10.10;4.47;;;5.50;99.90;;;5.62;68.40;100458.56;5071851;28;20171;-66
2022/02/07 10:09:45;;;;;;;18.25;3.30;;;5.50;99.90;;;5.65;67.39;100463.59;5073299;28;20164;-67
2022/02/07 10:12:40;;;;;;;9.07;2.80;;;5.60;99.90;;;5.62;67.27;100466.63;5075958;28;20203;-66
2022/02/07 10:15:25;;;;;;;7.28;2.60;;;5.50;99.90;;;5.58;66.94;100465.31;5075877;28;20204;-69
2022/02/07 10:18:10;;;;;;;13.38;2.97;;;5.50;99.70;;;5.93;65.73;100476.44;5073070;28;20200;-68
2022/02/07 10:35:45;;;;;;;12.88;3.15;;;5.90;85.30;;;5.89;64.61;100531.53;5061045;28;20220;-69
2022/02/07 10:38:25;;;;;;;18.27;3.78;;;5.90;84.80;;;5.85;64.46;100522.16;5055654;28;20184;-70
2022/02/07 10:41:20;;;;;;;9.45;3.90;;;5.80;84.30;;;5.85;63.97;100519.47;5056388;28;20688;-69
2022/02/07 10:44:02;;;;;;;14.18;3.13;;;5.80;78.20;;;5.93;64.17;100531.00;5054859;28;20208;-69
2022/02/07 10:46:35;;;;;;;11.43;3.50;;;5.90;80.50;;;5.90;63.43;100528.69;5054781;28;20212;-67
2022/02/07 10:49:11;;;;;;;13.40;3.00;;;5.90;70.40;;;6.07;63.76;100529.38;5054980;28;20645;-69
2022/02/07 10:51:39;;;;;;;9.32;3.00;;;6.00;77.10;;;6.21;62.35;100550.06;5055116;28;20227;-70
2022/02/07 10:54:12;;;;;;;13.98;2.92;;;6.20;64.90;;;6.12;61.93;100553.84;5055240;28;20212;-70
2022/02/07 10:56:45;;;;;;;13.15;6.97;;;6.20;55.00;;;6.29;61.99;100546.47;5055086;28;20185;-69
2022/02/07 10:59:17;;;;;;;14.40;3.22;;;6.20;58.10;;;6.49;61.54;100559.19;5054919;28;20197;-70
2022/02/07 11:02:38;;;;;;;16.70;2.92;;;6.30;57.10;;;6.53;61.26;100557.78;5054841;28;20195;-69
2022/02/07 11:05:01;;;;;;;18.60;3.60;;;6.40;51.80;;;6.47;61.71;100555.84;5054831;28;20221;-69
2022/02/07 11:07:32;;;;;;;17.50;4.03;;;6.40;52.90;;;6.30;61.90;100572.31;5054603;28;20177;-69
2022/02/07 11:15:38;;;;;;;11.85;3.85;;;6.30;49.40;;;6.42;60.98;100562.78;5054358;28;20334;-70
2022/02/07 11:18:21;;;;;;;9.75;2.40;;;6.30;45.50;;;6.26;60.12;100579.06;5054477;28;20560;-70
2022/02/07 11:21:14;;;;;;;12.57;4.30;;;6.30;39.70;;;6.22;60.59;100591.19;5053549;28;20181;-69
2022/02/07 11:23:54;;;;;;;10.57;3.50;;;6.20;39.30;;;6.45;60.09;100592.81;5054241;28;20200;-71
2022/02/07 11:26:35;;;;;;;12.80;3.70;;;6.40;37.60;;;6.46;59.77;100607.09;5069054;28;20199;-70
2022/02/07 11:29:04;;;;;;;11.57;3.95;;;6.40;35.10;;;6.71;58.69;100621.13;5073838;28;20192;-70
2022/02/07 11:31:42;;;;;;;14.80;4.30;;;6.60;31.30;;;6.58;58.40;100615.56;5075133;28;20250;-70
2022/02/07 11:34:13;;;;;;;9.77;3.00;;;6.60;27.60;;;6.77;58.21;100612.34;5074496;28;20393;-70
2022/02/07 11:36:43;;;;;;;12.80;4.07;;;6.70;28.60;;;6.62;57.90;100612.31;5074925;28;20188;-68
2022/02/07 11:39:16;;;;;;;14.90;4.03;;;6.60;26.00;;;6.48;58.22;100627.41;5074794;28;20176;-69
2022/02/07 11:42:12;;;;;;;6.85;3.40;;;6.50;26.20;;;6.55;58.38;100633.72;5074765;28;20657;-70
2022/02/07 11:45:22;;;;;;;14.63;3.70;;;6.50;27.30;;;6.58;59.00;100645.16;5074579;28;20299;-70
2022/02/07 11:47:56;;;;;;;8.65;3.65;;;6.50;28.30;;;6.45;58.31;100654.66;5074065;28;20227;-67
2022/02/07 11:50:27;;;;;;;9.65;2.42;;;6.50;25.90;;;6.29;58.12;100643.22;5074947;28;20241;-70
2022/02/07 11:53:03;;;;;;;21.13;4.57;;;6.30;25.00;;;6.40;58.70;100657.03;5070759;28;20208;-68
2022/02/07 11:55:35;;;;;;;14.52;4.80;;;6.30;28.10;;;6.45;58.65;100648.44;5055107;28;20181;-70
2022/02/07 11:58:12;;;;;;;15.95;4.32;;;6.40;27.80;;;6.51;58.21;100669.22;5055155;28;20184;-69
2022/02/07 12:00:47;;;;;;;21.20;4.80;;;6.40;26.30;;;6.36;57.62;100679.94;5056052;28;20188;-68
2022/02/07 12:03:18;;;;;;;14.90;3.90;;;6.40;24.10;;;6.23;57.95;100668.94;5072460;28;20738;-67
2022/02/07 12:05:50;;;;;;;13.93;4.32;;;6.30;24.30;;;6.41;58.11;100679.38;5056742;28;20522;-68
2022/02/07 12:08:24;;;;;;;14.23;3.35;;;6.30;26.30;;;6.30;57.73;100680.63;5056523;28;20703;-69
2022/02/07 12:11:43;;;;;;;14.85;4.05;;;6.30;23.10;;;6.23;57.63;100687.75;5056655;28;20173;-68
2022/02/07 12:14:32;;;;;;;18.33;4.97;;;6.30;22.30;;;6.11;58.44;100689.16;5054631;28;20701;-69
2022/02/07 12:17:02;;;;;;;9.15;3.50;;;6.20;25.30;;;6.02;59.22;100701.81;5054551;28;20187;-69
2022/02/07 12:19:41;;;;;;;17.73;4.25;;;6.10;27.20;;;6.18;59.96;100700.06;5054656;28;20179;-69
2022/02/07 12:22:16;;;;;;;23.77;5.65;;;6.10;30.40;;;6.38;60.42;100704.78;5054714;28;20256;-67
2022/02/07 12:24:58;;;;;;;13.88;3.80;;;6.20;35.70;;;6.23;59.36;100720.00;5054601;28;20200;-68
2022/02/07 12:27:28;;;;;;;25.67;5.55;;;6.30;30.00;;;6.33;59.36;100717.91;5054645;28;20185;-68
2022/02/07 12:30:17;;;;;;;17.38;4.15;;;6.30;30.70;;;6.34;59.72;100726.81;5054866;28;20181;-68